Time;durP1;ratioP1;P1;durP2;ratioP2;P2;SDS_P1;SDS_P2;PMS_P1;PMS_P2;Temp;Humidity;BMP_temperature;BMP_pressure;BME280_temperature;BME280_humidity;BME280_pressure;Samples;Min_cycle;Max_cycle;Signal;HPM_P1;HPM_P2
2024/04/13 00:00:39;;;;;;;24.80;21.70;;;;;;;10.13;100.00;99907.38;109540;1251;59980;-72
2024/04/13 00:03:26;;;;;;;26.20;21.70;;;;;;;10.12;100.00;99903.69;109461;1251;61896;-73
2024/04/13 00:05:53;;;;;;;25.50;21.20;;;;;;;10.10;100.00;99901.09;109564;1251;59854;-73
2024/04/13 00:08:19;;;;;;;27.00;21.80;;;;;;;10.07;100.00;99896.44;109547;1251;59905;-73
2024/04/13 00:10:45;;;;;;;29.20;22.60;;;;;;;10.05;100.00;99894.27;109529;1251;59731;-72
2024/04/13 00:13:14;;;;;;;24.70;20.40;;;;;;;10.02;100.00;99898.30;109514;1251;60157;-71
2024/04/13 00:15:40;;;;;;;26.10;21.10;;;;;;;9.99;100.00;99902.36;109523;1251;59817;-72
2024/04/13 00:18:07;;;;;;;25.50;20.90;;;;;;;9.96;100.00;99900.39;109528;1251;59847;-72
2024/04/13 00:20:33;;;;;;;25.70;20.30;;;;;;;9.93;100.00;99902.33;109494;1251;60170;-72
2024/04/13 00:22:59;;;;;;;24.60;21.10;;;;;;;9.89;100.00;99897.72;109521;1251;60149;-72
2024/04/13 00:25:29;;;;;;;21.30;18.70;;;;;;;9.85;100.00;99891.54;109494;1251;60174;-73
2024/04/13 00:27:56;;;;;;;25.60;20.50;;;;;;;9.82;100.00;99896.85;109499;1251;59796;-72
2024/04/13 00:30:22;;;;;;;29.50;23.10;;;;;;;9.78;100.00;99897.20;109533;1255;59807;-73
2024/04/13 00:32:49;;;;;;;30.70;23.50;;;;;;;9.76;100.00;99898.18;109549;1251;59805;-72
2024/04/13 00:35:15;;;;;;;33.50;24.80;;;;;;;9.74;100.00;99901.67;109531;1251;59934;-72
2024/04/13 00:37:41;;;;;;;28.80;22.80;;;;;;;9.73;100.00;99899.94;109521;1251;60165;-73
2024/04/13 00:40:08;;;;;;;31.30;23.80;;;;;;;9.71;100.00;99892.24;109496;1251;60054;-73
2024/04/13 00:42:36;;;;;;;27.20;23.10;;;;;;;9.68;100.00;99889.16;109543;1251;59708;-73
2024/04/13 00:45:03;;;;;;;29.90;24.30;;;;;;;9.66;100.00;99890.52;109506;1251;66852;-72
2024/04/13 00:47:32;;;;;;;26.90;23.50;;;;;;;9.64;100.00;99890.25;109518;1251;60288;-73
2024/04/13 00:50:00;;;;;;;31.40;24.40;;;;;;;9.61;100.00;99889.86;109472;1251;64048;-73
2024/04/13 00:52:27;;;;;;;28.10;24.90;;;;;;;9.58;100.00;99887.35;109503;1251;59731;-72
2024/04/13 00:54:55;;;;;;;31.60;24.10;;;;;;;9.56;100.00;99892.78;109562;1251;59903;-72
2024/04/13 00:57:23;;;;;;;34.20;25.60;;;;;;;9.53;100.00;99890.98;109557;1251;66634;-72
2024/04/13 00:59:50;;;;;;;32.40;24.60;;;;;;;9.50;100.00;99892.00;109527;1251;60166;-72
2024/04/13 01:02:19;;;;;;;33.30;23.80;;;;;;;9.49;100.00;99895.45;109547;1251;64174;-71
2024/04/13 01:04:48;;;;;;;32.10;25.10;;;;;;;9.47;100.00;99897.46;109314;1251;59828;-72
2024/04/13 01:07:19;;;;;;;30.60;25.20;;;;;;;9.45;100.00;99896.11;109516;1251;59786;-72
2024/04/13 01:09:46;;;;;;;31.00;25.20;;;;;;;9.44;100.00;99891.91;109544;1251;66926;-72
2024/04/13 01:12:12;;;;;;;26.00;22.80;;;;;;;9.44;100.00;99885.55;109518;1251;59837;-71
2024/04/13 01:14:39;;;;;;;30.40;23.40;;;;;;;9.43;100.00;99883.13;109475;1251;63880;-73
2024/04/13 01:17:05;;;;;;;29.00;23.00;;;;;;;9.42;100.00;99884.02;109475;1255;59739;-72
2024/04/13 01:19:32;;;;;;;30.30;23.00;;;;;;;9.42;100.00;99889.16;109545;1251;59917;-71
2024/04/13 01:21:59;;;;;;;32.00;22.20;;;;;;;9.43;100.00;99888.08;109582;1251;59797;-72
2024/04/13 01:24:26;;;;;;;26.30;21.60;;;;;;;9.44;100.00;99888.56;109518;1251;59777;-72
2024/04/13 01:26:54;;;;;;;26.20;21.50;;;;;;;9.43;100.00;99887.15;109521;1252;63777;-72
2024/04/13 01:29:20;;;;;;;26.70;21.40;;;;;;;9.43;100.00;99883.09;109551;1251;59840;-72
2024/04/13 01:31:47;;;;;;;24.90;20.70;;;;;;;9.43;100.00;99882.94;109533;1251;60032;-71
2024/04/13 01:34:13;;;;;;;26.50;19.60;;;;;;;9.43;100.00;99881.49;109508;1251;59856;-71
2024/04/13 01:36:41;;;;;;;24.20;19.90;;;;;;;9.44;100.00;99881.44;109543;1256;59795;-72
2024/04/13 01:39:10;;;;;;;28.10;21.50;;;;;;;9.44;100.00;99881.59;109333;1251;64061;-72
2024/04/13 01:41:46;;;;;;;23.00;20.00;;;;;;;9.44;100.00;99882.65;109523;1251;59807;-72
2024/04/13 01:44:13;;;;;;;22.80;19.70;;;;;;;9.44;100.00;99883.20;109562;1251;59906;-72
2024/04/13 01:46:39;;;;;;;25.00;19.30;;;;;;;9.45;100.00;99877.34;109555;1251;60066;-71
2024/04/13 01:49:06;;;;;;;20.00;17.60;;;;;;;9.44;100.00;99876.67;109377;1251;59908;-71
2024/04/13 01:51:34;;;;;;;22.90;17.70;;;;;;;9.45;100.00;99875.75;109515;1251;59955;-72
2024/04/13 01:54:01;;;;;;;22.00;15.90;;;;;;;9.47;100.00;99873.68;109492;1251;59760;-72
2024/04/13 01:56:27;;;;;;;22.50;15.60;;;;;;;9.49;100.00;99876.06;109549;1251;60812;-71
2024/04/13 01:58:54;;;;;;;19.80;13.30;;;;;;;9.53;100.00;99870.73;109550;1255;59873;-72
2024/04/13 02:01:21;;;;;;;20.30;12.80;;;;;;;9.61;100.00;99867.33;109569;1251;59954;-72
2024/04/13 02:03:48;;;;;;;18.10;11.80;;;;;;;9.71;100.00;99869.16;109454;1251;59853;-72
2024/04/13 02:06:15;;;;;;;14.30;11.30;;;;;;;9.78;100.00;99870.55;109495;1251;60161;-72
2024/04/13 02:08:41;;;;;;;17.40;11.50;;;;;;;9.86;100.00;99870.00;109566;1251;59934;-72
2024/04/13 02:11:08;;;;;;;14.50;10.60;;;;;;;9.93;100.00;99873.02;109511;1251;59886;-73
2024/04/13 02:13:34;;;;;;;14.20;10.40;;;;;;;9.98;100.00;99866.95;109506;1251;59804;-72
2024/04/13 02:16:01;;;;;;;14.80;10.40;;;;;;;10.03;100.00;99870.38;109505;1251;59851;-72
2024/04/13 02:18:27;;;;;;;14.50;10.20;;;;;;;10.10;100.00;99869.52;109462;1254;59790;-72
2024/04/13 02:20:55;;;;;;;14.00;10.10;;;;;;;10.15;100.00;99868.19;109533;1251;60036;-71
2024/04/13 02:23:22;;;;;;;15.00;9.50;;;;;;;10.17;100.00;99865.09;109507;1251;65338;-73
2024/04/13 02:25:52;;;;;;;12.90;9.40;;;;;;;10.20;100.00;99860.86;109363;1251;59927;-72
2024/04/13 02:28:18;;;;;;;14.60;9.70;;;;;;;10.23;100.00;99864.41;109505;1251;64160;-72
2024/04/13 02:30:44;;;;;;;12.50;9.00;;;;;;;10.26;100.00;99866.73;109509;1251;60082;-72
2024/04/13 02:33:11;;;;;;;13.40;8.70;;;;;;;10.29;100.00;99868.91;109533;1251;60152;-73
2024/04/13 02:35:37;;;;;;;11.90;8.80;;;;;;;10.33;100.00;99862.83;109555;1251;59804;-72
2024/04/13 02:38:04;;;;;;;13.30;8.70;;;;;;;10.38;100.00;99865.80;109338;1251;60011;-72
2024/04/13 02:40:30;;;;;;;12.40;8.40;;;;;;;10.42;100.00;99864.17;109537;1251;59915;-72
2024/04/13 02:42:57;;;;;;;16.00;8.80;;;;;;;10.46;100.00;99864.14;109497;1251;60054;-72
2024/04/13 02:45:23;;;;;;;13.50;8.70;;;;;;;10.50;100.00;99861.95;109497;1251;59865;-72
2024/04/13 02:47:50;;;;;;;9.30;7.50;;;;;;;10.56;100.00;99868.20;109544;1251;59765;-72
2024/04/13 02:50:17;;;;;;;12.40;8.00;;;;;;;10.63;100.00;99870.52;109474;1251;60038;-72
2024/04/13 02:52:44;;;;;;;10.80;8.40;;;;;;;10.70;100.00;99868.54;109311;1257;63831;-72
2024/04/13 02:55:11;;;;;;;12.70;8.30;;;;;;;10.76;100.00;99867.17;109499;1251;60180;-72
2024/04/13 02:57:37;;;;;;;10.20;8.20;;;;;;;10.80;100.00;99865.35;109542;1251;60648;-72
2024/04/13 03:00:04;;;;;;;11.40;7.90;;;;;;;10.85;100.00;99868.13;109522;1251;59780;-72
2024/04/13 03:02:30;;;;;;;12.20;8.80;;;;;;;10.88;100.00;99868.44;109503;1251;60139;-72
2024/04/13 03:04:56;;;;;;;11.20;7.50;;;;;;;10.90;100.00;99869.42;109550;1251;59879;-72
2024/04/13 03:07:23;;;;;;;11.60;7.60;;;;;;;10.91;100.00;99871.70;109536;1251;59703;-72
2024/04/13 03:09:50;;;;;;;11.10;7.50;;;;;;;10.92;100.00;99867.72;109535;1251;59980;-73
2024/04/13 03:12:16;;;;;;;13.50;8.40;;;;;;;10.91;100.00;99865.64;109509;1251;59843;-72
2024/04/13 03:14:43;;;;;;;11.30;7.70;;;;;;;10.89;100.00;99866.29;109537;1251;60179;-72
2024/04/13 03:17:10;;;;;;;9.50;7.40;;;;;;;10.87;100.00;99866.58;109527;1251;63745;-72
2024/04/13 03:19:37;;;;;;;10.90;8.50;;;;;;;10.85;100.00;99866.30;109524;1251;59994;-72
2024/04/13 03:22:04;;;;;;;10.00;7.40;;;;;;;10.84;100.00;99868.85;109539;1251;59960;-73
2024/04/13 03:24:33;;;;;;;12.40;7.60;;;;;;;10.83;100.00;99875.85;109542;1251;66505;-73
2024/04/13 03:27:02;;;;;;;12.00;8.00;;;;;;;10.83;100.00;99876.77;109513;1251;60801;-72
2024/04/13 03:29:29;;;;;;;9.80;7.60;;;;;;;10.82;100.00;99878.05;109487;1251;63707;-72
2024/04/13 03:31:56;;;;;;;10.90;8.10;;;;;;;10.81;100.00;99884.66;109503;1251;59811;-73
2024/04/13 03:34:23;;;;;;;9.00;7.50;;;;;;;10.82;100.00;99882.50;109545;1251;60119;-72
2024/04/13 03:36:49;;;;;;;12.20;7.70;;;;;;;10.84;100.00;99879.90;109523;1251;66798;-73
2024/04/13 03:39:16;;;;;;;11.90;8.40;;;;;;;10.87;100.00;99879.36;109550;1251;59836;-72
2024/04/13 03:41:42;;;;;;;8.90;7.30;;;;;;;10.90;100.00;99879.38;109487;1251;60569;-72
2024/04/13 03:44:09;;;;;;;9.90;7.20;;;;;;;10.93;100.00;99885.07;109550;1251;59728;-72
2024/04/13 03:46:35;;;;;;;13.10;7.90;;;;;;;10.96;100.00;99879.56;109342;1251;59960;-72
2024/04/13 03:49:02;;;;;;;10.70;8.80;;;;;;;11.00;100.00;99877.80;109562;1251;59774;-73
2024/04/13 03:51:28;;;;;;;13.00;8.00;;;;;;;11.04;100.00;99878.13;109561;1251;60223;-73
2024/04/13 03:53:54;;;;;;;9.70;8.20;;;;;;;11.07;100.00;99877.23;109570;1251;60674;-73
2024/04/13 03:56:21;;;;;;;13.80;8.70;;;;;;;11.09;100.00;99876.90;109515;1251;59817;-72
2024/04/13 03:58:47;;;;;;;10.50;7.80;;;;;;;11.12;100.00;99877.82;109579;1251;59864;-72
2024/04/13 04:01:13;;;;;;;12.80;8.00;;;;;;;11.15;100.00;99872.88;109514;1251;59919;-72
2024/04/13 04:03:40;;;;;;;10.80;8.40;;;;;;;11.17;100.00;99877.56;109544;1251;59855;-72
2024/04/13 04:06:06;;;;;;;10.50;7.70;;;;;;;11.18;100.00;99879.08;109500;1251;59855;-72
2024/04/13 04:08:33;;;;;;;13.10;8.50;;;;;;;11.21;100.00;99884.61;109553;1251;59918;-73
2024/04/13 04:11:00;;;;;;;11.60;8.80;;;;;;;11.24;100.00;99888.93;109562;1251;60837;-72
2024/04/13 04:13:26;;;;;;;10.40;8.30;;;;;;;11.28;100.00;99888.69;109488;1251;59948;-73
2024/04/13 04:15:52;;;;;;;10.30;8.20;;;;;;;11.35;100.00;99885.79;109347;1251;59843;-71
2024/04/13 04:18:20;;;;;;;11.70;8.40;;;;;;;11.43;100.00;99879.51;109520;1251;59877;-72
2024/04/13 04:20:47;;;;;;;10.80;8.30;;;;;;;11.50;100.00;99879.67;109530;1251;59787;-72
2024/04/13 04:23:13;;;;;;;11.20;7.90;;;;;;;11.56;100.00;99882.30;109497;1251;59791;-73
2024/04/13 04:25:40;;;;;;;11.70;8.30;;;;;;;11.63;100.00;99889.92;109332;1251;74883;-72
2024/04/13 04:28:07;;;;;;;8.90;7.30;;;;;;;11.70;100.00;99891.33;109293;1251;60293;-73
2024/04/13 04:30:33;;;;;;;9.70;7.20;;;;;;;11.76;100.00;99891.48;109514;1251;65358;-71
2024/04/13 04:33:00;;;;;;;9.90;7.20;;;;;;;11.81;100.00;99892.95;109533;1251;59732;-72
2024/04/13 04:35:27;;;;;;;9.50;7.60;;;;;;;11.86;100.00;99894.48;109575;1251;59748;-71
2024/04/13 04:37:53;;;;;;;10.20;7.60;;;;;;;11.90;100.00;99894.81;109498;1251;66562;-72
2024/04/13 04:40:20;;;;;;;9.80;7.90;;;;;;;11.94;100.00;99894.77;109516;1251;59801;-73
2024/04/13 04:42:47;;;;;;;10.50;7.60;;;;;;;11.97;100.00;99898.83;109524;1251;63746;-73
2024/04/13 04:45:13;;;;;;;10.30;6.80;;;;;;;12.01;100.00;99900.74;109519;1251;59803;-71
2024/04/13 04:47:40;;;;;;;9.80;7.70;;;;;;;12.06;100.00;99906.73;109507;1251;59871;-72
2024/04/13 04:50:06;;;;;;;9.40;7.30;;;;;;;12.10;100.00;99904.54;109573;1251;60070;-72
2024/04/13 04:52:32;;;;;;;9.50;7.60;;;;;;;12.15;100.00;99908.66;109541;1251;59744;-72
2024/04/13 04:55:01;;;;;;;9.40;7.70;;;;;;;12.21;100.00;99908.81;109564;1251;59803;-72
2024/04/13 04:57:28;;;;;;;8.70;7.60;;;;;;;12.28;100.00;99910.58;109528;1251;59834;-72
2024/04/13 04:59:55;;;;;;;9.50;7.80;;;;;;;12.37;100.00;99914.47;109568;1251;59649;-73
2024/04/13 05:02:21;;;;;;;8.30;7.40;;;;;;;12.51;100.00;99915.28;109554;1251;66527;-73
2024/04/13 05:04:48;;;;;;;8.60;7.40;;;;;;;12.73;100.00;99920.71;109558;1251;59782;-72
2024/04/13 05:07:14;;;;;;;9.10;6.50;;;;;;;13.02;100.00;99918.20;109522;1251;59831;-72
2024/04/13 05:09:41;;;;;;;9.00;7.40;;;;;;;13.20;100.00;99919.75;109519;1251;59793;-71
2024/04/13 05:12:07;;;;;;;8.60;7.00;;;;;;;13.22;100.00;99920.71;109542;1251;59868;-73
2024/04/13 05:14:34;;;;;;;8.20;7.20;;;;;;;13.28;100.00;99920.17;109340;1251;67771;-72
2024/04/13 05:17:00;;;;;;;7.60;6.70;;;;;;;13.43;100.00;99919.58;109585;1251;59986;-71
2024/04/13 05:19:27;;;;;;;8.70;6.50;;;;;;;13.88;100.00;99917.91;109537;1251;59856;-72
2024/04/13 05:21:54;;;;;;;9.40;6.40;;;;;;;14.36;100.00;99914.69;109538;1251;59802;-73
2024/04/13 05:24:20;;;;;;;9.40;7.00;;;;;;;14.71;100.00;99908.26;109560;1251;60010;-71
2024/04/13 05:26:48;;;;;;;7.30;6.10;;;;;;;14.97;100.00;99906.77;109577;1251;59888;-72
2024/04/13 05:29:14;;;;;;;10.10;6.20;;;;;;;15.15;100.00;99904.77;109524;1251;59770;-73
2024/04/13 05:31:40;;;;;;;7.40;6.10;;;;;;;15.12;100.00;99908.95;109360;1251;60036;-72
2024/04/13 05:34:07;;;;;;;8.70;5.80;;;;;;;14.98;100.00;99913.14;109529;1251;59780;-72
2024/04/13 05:36:33;;;;;;;6.20;5.50;;;;;;;14.91;100.00;99912.91;109616;1251;59794;-72
2024/04/13 05:38:59;;;;;;;7.70;5.80;;;;;;;14.85;100.00;99907.09;109528;1251;60136;-71
2024/04/13 05:41:26;;;;;;;7.00;5.40;;;;;;;14.80;100.00;99904.70;109573;1251;59843;-71
2024/04/13 05:43:52;;;;;;;7.60;5.80;;;;;;;14.77;100.00;99906.21;109562;1251;59887;-72
2024/04/13 05:46:19;;;;;;;8.70;6.30;;;;;;;14.74;100.00;99906.27;109537;1251;59998;-72
2024/04/13 05:48:45;;;;;;;5.80;5.20;;;;;;;14.83;100.00;99908.52;109597;1251;59763;-73
2024/04/13 05:51:12;;;;;;;9.80;6.00;;;;;;;15.04;100.00;99910.73;109555;1251;59889;-73
2024/04/13 05:53:38;;;;;;;9.30;5.60;;;;;;;15.15;100.00;99912.29;109518;1251;59842;-72
2024/04/13 05:56:05;;;;;;;8.90;6.60;;;;;;;15.17;100.00;99912.16;109541;1251;59977;-73
2024/04/13 05:58:32;;;;;;;11.90;7.40;;;;;;;15.11;100.00;99903.66;109570;1251;60142;-73
2024/04/13 06:00:58;;;;;;;13.50;9.50;;;;;;;15.04;100.00;99903.74;109546;1251;59880;-72
2024/04/13 06:03:24;;;;;;;11.10;7.80;;;;;;;15.20;100.00;99896.59;109535;1251;59843;-72
2024/04/13 06:05:51;;;;;;;9.90;7.80;;;;;;;15.40;100.00;99892.61;109557;1251;59855;-72
2024/04/13 06:08:17;;;;;;;7.80;6.40;;;;;;;15.52;100.00;99894.76;109514;1251;59857;-73
2024/04/13 06:10:44;;;;;;;8.40;6.40;;;;;;;15.68;100.00;99896.65;109523;1251;59834;-73
2024/04/13 06:13:10;;;;;;;7.40;6.30;;;;;;;15.93;100.00;99892.48;109562;1251;59779;-73
2024/04/13 06:15:38;;;;;;;6.40;5.80;;;;;;;16.20;100.00;99888.86;109560;1251;59906;-72
2024/04/13 06:18:04;;;;;;;7.40;6.20;;;;;;;16.55;100.00;99886.69;109517;1251;60155;-73
2024/04/13 06:20:31;;;;;;;8.50;5.90;;;;;;;16.90;100.00;99886.73;109504;1251;62518;-73
2024/04/13 06:22:58;;;;;;;8.40;6.00;;;;;;;17.17;100.00;99880.95;109530;1251;59860;-73
2024/04/13 06:25:24;;;;;;;11.80;6.00;;;;;;;17.45;100.00;99880.33;109546;1251;59785;-72
2024/04/13 06:27:51;;;;;;;9.30;5.60;;;;;;;17.67;100.00;99876.55;109541;1251;60349;-73
2024/04/13 06:30:17;;;;;;;8.20;6.00;;;;;;;17.50;100.00;99875.73;109578;1251;59881;-72
2024/04/13 06:32:44;;;;;;;7.20;5.40;;;;;;;17.33;100.00;99874.48;109347;1251;60086;-73
2024/04/13 06:35:11;;;;;;;8.40;5.70;;;;;;;17.55;100.00;99868.17;109551;1251;60068;-73
2024/04/13 06:37:38;;;;;;;8.40;5.90;;;;;;;17.83;100.00;99870.41;109572;1251;59981;-72
2024/04/13 06:40:04;;;;;;;7.00;5.70;;;;;;;18.04;100.00;99871.73;109534;1251;59881;-73
2024/04/13 06:42:31;;;;;;;7.10;5.50;;;;;;;18.14;100.00;99870.86;109536;1251;60187;-73
2024/04/13 06:44:57;;;;;;;7.00;5.30;;;;;;;18.20;100.00;99872.70;109522;1251;63846;-72
2024/04/13 06:47:24;;;;;;;7.60;6.30;;;;;;;18.26;100.00;99876.84;109536;1251;60022;-72
2024/04/13 06:49:50;;;;;;;7.60;5.80;;;;;;;18.17;100.00;99881.91;109561;1251;59765;-73
2024/04/13 06:52:16;;;;;;;8.80;6.50;;;;;;;18.08;100.00;99885.89;109547;1251;59810;-72
2024/04/13 06:54:43;;;;;;;8.40;6.60;;;;;;;18.05;100.00;99884.37;109544;1251;59893;-73
2024/04/13 06:57:09;;;;;;;10.00;7.20;;;;;;;17.98;100.00;99885.47;109541;1251;59872;-75
2024/04/13 06:59:35;;;;;;;9.30;6.80;;;;;;;17.94;100.00;99882.04;109558;1251;60276;-72
2024/04/13 07:02:02;;;;;;;9.20;6.50;;;;;;;17.93;100.00;99883.02;109546;1251;59885;-73
2024/04/13 07:04:28;;;;;;;10.80;7.30;;;;;;;17.97;100.00;99887.38;109509;1251;59857;-72
2024/04/13 07:06:54;;;;;;;10.60;7.60;;;;;;;17.98;100.00;99883.83;109327;1251;59853;-72
2024/04/13 07:09:21;;;;;;;9.90;7.70;;;;;;;18.02;100.00;99884.98;109572;1251;59812;-73
2024/04/13 07:11:47;;;;;;;9.50;7.40;;;;;;;18.03;100.00;99882.75;109551;1251;60309;-72
2024/04/13 07:14:14;;;;;;;13.00;6.70;;;;;;;18.04;100.00;99885.77;109510;1251;59809;-71
2024/04/13 07:16:40;;;;;;;8.40;7.30;;;;;;;18.08;100.00;99886.83;109561;1251;59861;-72
2024/04/13 07:19:06;;;;;;;10.00;6.90;;;;;;;18.14;100.00;99885.04;109633;1251;59810;-71
2024/04/13 07:21:33;;;;;;;8.00;6.10;;;;;;;18.18;100.00;99881.09;109577;1251;59914;-72
2024/04/13 07:23:59;;;;;;;8.20;6.10;;;;;;;18.22;100.00;99878.67;109533;1251;60001;-73
2024/04/13 07:26:26;;;;;;;7.50;6.30;;;;;;;18.17;100.00;99882.10;109600;1251;59844;-73
2024/04/13 07:28:52;;;;;;;7.20;6.10;;;;;;;18.15;100.00;99877.91;109564;1251;59890;-72
2024/04/13 07:31:19;;;;;;;7.10;6.30;;;;;;;18.22;100.00;99878.96;109546;1251;61278;-73
2024/04/13 07:33:45;;;;;;;10.50;7.00;;;;;;;18.30;100.00;99875.98;109544;1251;60116;-72
2024/04/13 07:36:11;;;;;;;8.90;6.80;;;;;;;18.38;100.00;99872.42;109523;1251;60067;-72
2024/04/13 07:38:38;;;;;;;8.40;7.10;;;;;;;18.47;100.00;99872.02;109543;1251;59960;-73
2024/04/13 07:41:04;;;;;;;11.90;7.80;;;;;;;18.51;100.00;99868.95;109572;1251;60015;-73
2024/04/13 07:43:30;;;;;;;10.60;7.60;;;;;;;18.62;100.00;99870.86;109571;1250;59863;-72
2024/04/13 07:45:57;;;;;;;8.70;6.90;;;;;;;18.62;100.00;99868.30;109535;1251;59816;-74
2024/04/13 07:48:23;;;;;;;11.60;6.90;;;;;;;18.71;100.00;99873.36;109529;1251;59776;-71
2024/04/13 07:50:49;;;;;;;8.90;6.70;;;;;;;18.84;100.00;99869.38;109592;1251;59872;-72
2024/04/13 07:53:16;;;;;;;8.00;7.20;;;;;;;18.89;99.20;99866.92;109517;1251;59911;-72
2024/04/13 07:55:42;;;;;;;8.30;7.50;;;;;;;18.93;100.00;99862.79;109547;1251;60185;-72
2024/04/13 07:58:08;;;;;;;10.40;7.70;;;;;;;18.99;99.11;99859.60;109511;1251;59797;-72
2024/04/13 08:00:35;;;;;;;10.80;8.00;;;;;;;19.01;98.20;99856.86;109599;1251;59986;-72
2024/04/13 08:03:01;;;;;;;8.90;8.10;;;;;;;19.03;96.16;99856.50;109555;1251;59865;-73
2024/04/13 08:05:27;;;;;;;8.20;7.40;;;;;;;19.07;94.78;99850.24;109552;1251;61189;-71
2024/04/13 08:07:54;;;;;;;10.70;8.60;;;;;;;19.13;95.34;99848.48;109526;1251;60612;-71
2024/04/13 08:10:21;;;;;;;9.10;7.50;;;;;;;19.14;92.09;99848.89;109568;1251;59825;-72
2024/04/13 08:12:48;;;;;;;8.00;7.10;;;;;;;19.10;92.28;99849.09;109533;1251;59830;-71
2024/04/13 08:15:15;;;;;;;9.50;7.30;;;;;;;19.13;93.64;99846.45;109551;1251;66823;-71
2024/04/13 08:17:41;;;;;;;9.10;7.30;;;;;;;19.24;93.18;99847.45;109368;1251;59850;-71
2024/04/13 08:20:11;;;;;;;8.40;7.50;;;;;;;19.33;90.87;99848.13;109533;1251;59901;-70
2024/04/13 08:22:37;;;;;;;8.30;7.00;;;;;;;19.30;90.40;99846.35;109461;1256;59842;-71
2024/04/13 08:25:04;;;;;;;9.40;6.30;;;;;;;19.41;90.93;99843.92;109328;1251;59851;-72
2024/04/13 08:27:33;;;;;;;8.50;7.00;;;;;;;19.52;89.65;99844.17;109211;1251;159676;-71
2024/04/13 08:29:59;;;;;;;8.70;6.50;;;;;;;19.52;89.82;99849.08;109571;1251;60054;-71
2024/04/13 08:32:26;;;;;;;8.00;5.90;;;;;;;19.68;92.82;99848.02;109546;1251;60107;-74
2024/04/13 08:34:52;;;;;;;8.10;5.70;;;;;;;19.94;91.92;99850.14;109504;1251;59784;-75
2024/04/13 08:37:18;;;;;;;7.20;5.90;;;;;;;20.05;89.21;99850.91;109468;1252;60333;-74
2024/04/13 08:39:45;;;;;;;7.00;6.30;;;;;;;20.09;87.73;99844.44;109480;1252;59807;-76
2024/04/13 08:42:14;;;;;;;9.40;6.70;;;;;;;20.22;86.97;99848.48;109472;1252;59887;-74
2024/04/13 08:44:42;;;;;;;7.20;6.50;;;;;;;20.33;86.01;99847.60;109489;1252;64133;-75
2024/04/13 08:47:10;;;;;;;7.20;5.90;;;;;;;20.43;85.43;99851.51;109473;1252;60091;-75
2024/04/13 08:49:39;;;;;;;7.70;5.10;;;;;;;20.70;86.14;99847.21;109501;1252;60570;-74
2024/04/13 08:52:07;;;;;;;5.60;5.20;;;;;;;20.92;83.94;99846.34;109489;1253;65227;-76
2024/04/13 08:54:33;;;;;;;7.40;6.00;;;;;;;20.98;80.89;99849.23;109528;1252;61399;-75
2024/04/13 08:57:02;;;;;;;6.90;6.00;;;;;;;21.08;81.77;99851.45;109456;1252;59880;-74
2024/04/13 08:59:28;;;;;;;6.90;4.20;;;;;;;21.27;81.18;99854.11;109423;1253;60059;-75
2024/04/13 09:01:56;;;;;;;5.60;5.10;;;;;;;21.36;78.49;99855.05;109471;1252;59915;-75
2024/04/13 09:04:22;;;;;;;6.30;5.10;;;;;;;21.33;77.27;99852.63;109520;1252;66570;-74
2024/04/13 09:06:49;;;;;;;6.30;5.70;;;;;;;21.29;76.52;99852.31;109460;1253;60195;-74
2024/04/13 09:09:15;;;;;;;8.70;4.70;;;;;;;21.18;77.88;99850.69;109518;1253;63845;-75
2024/04/13 09:11:42;;;;;;;5.80;3.50;;;;;;;21.22;79.15;99845.90;109454;1253;59794;-74
2024/04/13 09:14:11;;;;;;;5.40;4.00;;;;;;;21.24;78.86;99840.27;109220;1253;59900;-75
2024/04/13 09:16:40;;;;;;;7.10;6.20;;;;;;;21.18;77.28;99842.32;109536;1253;66604;-76
2024/04/13 09:19:06;;;;;;;5.30;4.80;;;;;;;21.10;78.88;99839.23;109446;1253;59881;-75
2024/04/13 09:21:34;;;;;;;4.70;4.00;;;;;;;21.26;77.96;99839.09;109484;1252;59810;-74
2024/04/13 09:24:02;;;;;;;4.80;3.80;;;;;;;21.46;76.92;99836.23;109499;1252;59918;-74
2024/04/13 09:26:28;;;;;;;6.50;4.50;;;;;;;21.61;75.85;99835.48;109506;1252;59793;-75
2024/04/13 09:28:55;;;;;;;4.80;4.10;;;;;;;21.69;74.72;99835.21;109536;1252;68032;-75
2024/04/13 09:31:21;;;;;;;4.30;4.00;;;;;;;21.81;75.94;99834.85;109307;1253;59818;-74
2024/04/13 09:33:49;;;;;;;4.60;3.50;;;;;;;22.02;76.78;99829.89;109444;1253;59879;-75
2024/04/13 09:36:26;;;;;;;4.70;3.90;;;;;;;22.21;76.07;99826.52;109486;1252;59720;-75
2024/04/13 09:38:53;;;;;;;5.90;3.70;;;;;;;22.36;75.53;99825.73;109485;1253;59833;-74
2024/04/13 09:41:20;;;;;;;6.60;4.40;;;;;;;22.41;73.99;99822.87;109476;1253;66918;-74
2024/04/13 09:43:47;;;;;;;7.10;4.10;;;;;;;22.20;72.46;99820.61;109547;1252;60859;-75
2024/04/13 09:46:14;;;;;;;6.30;3.40;;;;;;;21.97;72.64;99818.83;109472;1253;64044;-75
2024/04/13 09:48:40;;;;;;;4.80;3.40;;;;;;;21.71;73.24;99819.45;109499;1253;59778;-75
2024/04/13 09:51:06;;;;;;;5.00;3.60;;;;;;;21.54;74.36;99825.71;109512;1252;59818;-75
2024/04/13 09:53:33;;;;;;;5.80;3.20;;;;;;;21.52;75.08;99825.18;109472;1252;59823;-74
2024/04/13 09:55:59;;;;;;;4.00;2.60;;;;;;;21.62;75.25;99819.80;109513;1252;59899;-75
2024/04/13 09:58:26;;;;;;;4.70;3.00;;;;;;;21.78;74.95;99822.65;109181;1253;59932;-74
2024/04/13 10:00:52;;;;;;;4.70;2.70;;;;;;;21.95;74.54;99827.38;109522;1253;59848;-75
2024/04/13 10:03:19;;;;;;;5.20;3.50;;;;;;;22.04;75.20;99827.86;109512;1253;60787;-74
2024/04/13 10:05:46;;;;;;;4.10;3.00;;;;;;;21.95;73.86;99826.79;109466;1253;59777;-75
2024/04/13 10:08:13;;;;;;;4.60;3.40;;;;;;;21.74;74.84;99828.73;109542;1252;60123;-74
2024/04/13 10:10:44;;;;;;;3.80;3.00;;;;;;;21.75;75.97;99826.63;109491;1253;64205;-74
2024/04/13 10:13:17;;;;;;;6.50;3.20;;;;;;;21.90;76.72;99824.01;109174;1252;59909;-75
2024/04/13 10:15:44;;;;;;;3.90;2.60;;;;;;;22.04;76.25;99822.27;109532;1253;60601;-74
2024/04/13 10:18:11;;;;;;;3.20;2.50;;;;;;;22.10;76.16;99824.31;109507;1252;66553;-75
2024/04/13 10:20:37;;;;;;;3.70;2.10;;;;;;;22.06;75.11;99819.69;109516;1252;60057;-75
2024/04/13 10:23:10;;;;;;;2.90;2.40;;;;;;;21.99;75.08;99822.65;109473;1253;62786;-75
2024/04/13 10:25:36;;;;;;;4.50;2.10;;;;;;;22.02;74.54;99826.27;109493;1253;59770;-74
2024/04/13 10:28:08;;;;;;;4.30;2.10;;;;;;;21.95;73.74;99826.77;109498;1253;60161;-75
2024/04/13 10:30:46;;;;;;;3.00;1.90;;;;;;;21.84;73.82;99823.70;109507;1252;66640;-74
2024/04/13 10:33:17;;;;;;;4.10;2.40;;;;;;;21.91;73.71;99819.59;109519;1251;59891;-74
2024/04/13 10:35:55;;;;;;;3.00;2.30;;;;;;;22.12;74.26;99814.92;109191;1253;64330;-74
2024/04/13 10:38:23;;;;;;;3.60;2.30;;;;;;;22.36;73.23;99799.42;109489;1252;59691;-75
2024/04/13 10:40:50;;;;;;;3.50;2.50;;;;;;;22.57;72.11;99784.28;109149;1255;59864;-75
2024/04/13 10:43:18;;;;;;;3.00;2.10;;;;;;;22.73;71.49;99776.45;109141;1256;67107;-74
2024/04/13 10:45:54;;;;;;;4.20;2.10;;;;;;;22.91;71.46;99764.70;109119;1256;59796;-75
2024/04/13 10:48:21;;;;;;;3.30;2.00;;;;;;;23.09;71.95;99761.27;109145;1256;64306;-75
2024/04/13 10:50:49;;;;;;;3.40;2.50;;;;;;;23.14;69.06;99762.50;109048;1257;59767;-75
2024/04/13 10:53:16;;;;;;;5.20;2.40;;;;;;;23.09;68.70;99764.48;109148;1256;60623;-75
2024/04/13 10:55:43;;;;;;;4.70;2.80;;;;;;;23.11;69.16;99760.28;109154;1256;67943;-74
2024/04/13 10:58:11;;;;;;;3.80;2.50;;;;;;;23.09;67.62;99754.67;109051;1257;59984;-74
2024/04/13 11:00:37;;;;;;;2.80;2.10;;;;;;;23.07;68.22;99755.40;109128;1256;62494;-74
2024/04/13 11:03:04;;;;;;;3.20;1.90;;;;;;;23.04;67.21;99749.23;109131;1256;60110;-73
2024/04/13 11:05:30;;;;;;;2.90;1.90;;;;;;;23.07;68.70;99746.58;109123;1255;59855;-75
2024/04/13 11:07:57;;;;;;;2.50;1.90;;;;;;;23.07;67.02;99739.83;109124;1256;60341;-73
2024/04/13 11:10:23;;;;;;;2.70;2.10;;;;;;;23.14;66.84;99737.47;109139;1256;60128;-74
2024/04/13 11:12:49;;;;;;;6.50;2.10;;;;;;;23.20;66.80;99728.08;109280;1252;59976;-74
2024/04/13 11:15:16;;;;;;;3.80;2.30;;;;;;;23.28;66.76;99728.01;109478;1252;60052;-74